Time;durP1;ratioP1;P1;durP2;ratioP2;P2;SDS_P1;SDS_P2;PMS_P1;PMS_P2;Temp;Humidity;BMP_temperature;BMP_pressure;BME280_temperature;BME280_humidity;BME280_pressure;Samples;Min_cycle;Max_cycle;Signal;HPM_P1;HPM_P2
2021/08/15 00:00:17;;;;;;;;;;;26.70;77.10;;;;;;5233346;28;19929;-73
2021/08/15 00:02:49;;;;;;;;;;;26.70;77.40;;;;;;5218752;28;19955;-73
2021/08/15 00:05:22;;;;;;;;;;;26.70;77.40;;;;;;5234255;28;19929;-73
2021/08/15 00:07:54;;;;;;;;;;;26.70;77.30;;;;;;5234193;28;19925;-73
2021/08/15 00:10:27;;;;;;;;;;;26.70;77.20;;;;;;5234017;28;19924;-73
2021/08/15 00:12:59;;;;;;;;;;;26.70;77.20;;;;;;5215565;28;19943;-73
2021/08/15 00:15:32;;;;;;;;;;;26.70;77.20;;;;;;5217908;28;19929;-73
2021/08/15 00:18:04;;;;;;;;;;;26.70;77.20;;;;;;5233214;28;20310;-72
2021/08/15 00:20:36;;;;;;;;;;;26.70;77.20;;;;;;5231436;28;19959;-73
2021/08/15 00:23:08;;;;;;;;;;;26.60;77.30;;;;;;5234117;28;19954;-73
2021/08/15 00:25:41;;;;;;;;;;;26.60;77.20;;;;;;5231018;28;19936;-73
2021/08/15 00:28:13;;;;;;;;;;;26.60;77.30;;;;;;5229279;28;19925;-72
2021/08/15 00:30:45;;;;;;;;;;;26.60;77.30;;;;;;5227661;28;19931;-73
2021/08/15 00:33:17;;;;;;;;;;;26.60;77.30;;;;;;5232613;28;19936;-72
2021/08/15 00:35:49;;;;;;;;;;;26.60;77.30;;;;;;5232460;28;19925;-73
2021/08/15 00:38:22;;;;;;;;;;;26.60;77.30;;;;;;5233069;28;19926;-73
2021/08/15 00:40:54;;;;;;;;;;;26.60;77.30;;;;;;5219063;28;19929;-73
2021/08/15 00:43:28;;;;;;;;;;;26.60;77.20;;;;;;5232692;28;20302;-73
2021/08/15 00:46:07;;;;;;;;;;;26.60;77.20;;;;;;5233458;28;20424;-73
2021/08/15 00:48:40;;;;;;;;;;;26.60;77.30;;;;;;5231920;28;19947;-74
2021/08/15 00:51:12;;;;;;;;;;;26.60;77.20;;;;;;5233789;28;19936;-74
2021/08/15 00:53:44;;;;;;;;;;;26.60;77.20;;;;;;5233476;28;19936;-73
2021/08/15 00:56:17;;;;;;;;;;;26.60;77.20;;;;;;5233087;28;19936;-73
2021/08/15 00:58:50;;;;;;;;;;;26.60;77.20;;;;;;5232608;28;20301;-73
2021/08/15 01:01:22;;;;;;;;;;;26.60;77.20;;;;;;5232945;28;19933;-73
2021/08/15 01:03:54;;;;;;;;;;;26.60;77.20;;;;;;5232045;28;19935;-74
2021/08/15 01:06:27;;;;;;;;;;;26.50;77.10;;;;;;5233312;28;20393;-73
2021/08/15 01:09:00;;;;;;;;;;;26.60;77.10;;;;;;5219456;28;19924;-73
2021/08/15 01:11:34;;;;;;;;;;;26.50;77.10;;;;;;5234026;28;19935;-73
2021/08/15 01:14:07;;;;;;;;;;;26.50;77.10;;;;;;5213982;28;19935;-73
2021/08/15 01:16:40;;;;;;;;;;;26.50;77.10;;;;;;5232207;28;19929;-72
2021/08/15 01:19:12;;;;;;;;;;;26.50;77.10;;;;;;5234208;28;19932;-73
2021/08/15 01:21:46;;;;;;;;;;;26.50;77.10;;;;;;5223028;28;19925;-73
2021/08/15 01:24:18;;;;;;;;;;;26.50;77.10;;;;;;5232151;28;19933;-73
2021/08/15 01:26:51;;;;;;;;;;;26.50;77.10;;;;;;5229573;28;19936;-73
2021/08/15 01:29:24;;;;;;;;;;;26.50;77.10;;;;;;5231165;28;19924;-73
2021/08/15 01:31:56;;;;;;;;;;;26.50;77.00;;;;;;5232375;28;19947;-72
2021/08/15 01:34:29;;;;;;;;;;;26.50;77.00;;;;;;5231851;28;19925;-72
2021/08/15 01:37:01;;;;;;;;;;;26.50;77.00;;;;;;5230658;28;19929;-73
2021/08/15 01:39:33;;;;;;;;;;;26.50;77.00;;;;;;5232918;28;19929;-72
2021/08/15 01:42:05;;;;;;;;;;;26.50;77.00;;;;;;5234225;28;19932;-72
2021/08/15 01:44:37;;;;;;;;;;;26.40;76.90;;;;;;5232487;28;19933;-73
2021/08/15 01:47:12;;;;;;;;;;;26.40;77.50;;;;;;5232434;28;19931;-72
2021/08/15 01:49:44;;;;;;;;;;;26.40;76.80;;;;;;5224259;28;20309;-73
2021/08/15 01:52:16;;;;;;;;;;;26.40;76.80;;;;;;5221349;28;19936;-73
2021/08/15 01:54:52;;;;;;;;;;;26.40;76.80;;;;;;5233067;28;19925;-73
2021/08/15 01:57:24;;;;;;;;;;;26.40;76.80;;;;;;5231669;28;19936;-73
2021/08/15 01:59:56;;;;;;;;;;;26.40;76.80;;;;;;5233751;28;19939;-73
2021/08/15 02:02:28;;;;;;;;;;;26.40;76.80;;;;;;5230862;28;19951;-73
2021/08/15 02:05:01;;;;;;;;;;;26.40;76.70;;;;;;5232861;28;19928;-73
2021/08/15 02:07:33;;;;;;;;;;;26.40;76.70;;;;;;5232782;28;19929;-73
2021/08/15 02:10:05;;;;;;;;;;;26.40;76.70;;;;;;5229400;28;19933;-73
2021/08/15 02:12:38;;;;;;;;;;;26.40;76.70;;;;;;5232620;28;19932;-73
2021/08/15 02:15:10;;;;;;;;;;;26.40;76.70;;;;;;5230965;28;19939;-72
2021/08/15 02:17:42;;;;;;;;;;;26.40;76.70;;;;;;5231676;28;19924;-72
2021/08/15 02:20:16;;;;;;;;;;;26.40;76.70;;;;;;5231343;28;19935;-73
2021/08/15 02:22:48;;;;;;;;;;;26.40;76.60;;;;;;5232928;28;19929;-73
2021/08/15 02:25:21;;;;;;;;;;;26.40;76.60;;;;;;5232581;28;20392;-72
2021/08/15 02:27:53;;;;;;;;;;;26.40;76.60;;;;;;5230398;28;20412;-72
2021/08/15 02:30:26;;;;;;;;;;;26.40;76.60;;;;;;5232047;28;19932;-73
2021/08/15 02:32:59;;;;;;;;;;;26.40;76.60;;;;;;5231760;28;19925;-73
2021/08/15 02:35:31;;;;;;;;;;;26.40;76.60;;;;;;5230879;28;19924;-73
2021/08/15 02:38:03;;;;;;;;;;;26.40;76.70;;;;;;5234451;28;19944;-73
2021/08/15 02:40:36;;;;;;;;;;;26.30;76.60;;;;;;5234676;28;19928;-73
2021/08/15 02:43:08;;;;;;;;;;;26.30;76.50;;;;;;5234635;28;19932;-72
2021/08/15 02:45:40;;;;;;;;;;;26.30;76.50;;;;;;5236513;28;19931;-72
2021/08/15 02:48:12;;;;;;;;;;;26.30;76.60;;;;;;5235731;28;19932;-73
2021/08/15 02:50:44;;;;;;;;;;;26.30;76.50;;;;;;5233004;28;19924;-73
2021/08/15 02:53:16;;;;;;;;;;;26.30;76.60;;;;;;5236152;28;20324;-73
2021/08/15 02:55:49;;;;;;;;;;;26.30;76.60;;;;;;5234551;28;19936;-73
2021/08/15 02:58:21;;;;;;;;;;;26.30;76.60;;;;;;5235088;28;19929;-73
2021/08/15 03:00:54;;;;;;;;;;;26.30;76.50;;;;;;5234838;28;19935;-72
2021/08/15 03:03:26;;;;;;;;;;;26.30;76.60;;;;;;5235587;28;20300;-73
2021/08/15 03:05:59;;;;;;;;;;;26.30;76.50;;;;;;5229496;28;19932;-73
2021/08/15 03:08:31;;;;;;;;;;;26.30;76.50;;;;;;5230650;28;19959;-72
2021/08/15 03:11:03;;;;;;;;;;;26.30;76.40;;;;;;5227296;28;19933;-73
2021/08/15 03:13:35;;;;;;;;;;;26.30;76.40;;;;;;5223379;28;19925;-73
2021/08/15 03:16:08;;;;;;;;;;;26.30;76.30;;;;;;5226766;28;20383;-73
2021/08/15 03:18:42;;;;;;;;;;;26.30;76.20;;;;;;5208222;28;20305;-73
2021/08/15 03:21:14;;;;;;;;;;;26.30;76.20;;;;;;5228751;28;19932;-72
2021/08/15 03:23:46;;;;;;;;;;;26.30;76.10;;;;;;5231200;28;20309;-73
2021/08/15 03:26:18;;;;;;;;;;;26.30;76.10;;;;;;5215967;28;19924;-72
2021/08/15 03:28:51;;;;;;;;;;;26.30;76.10;;;;;;5225605;28;19948;-73
2021/08/15 03:31:23;;;;;;;;;;;26.30;76.10;;;;;;5231567;28;19932;-73
2021/08/15 03:33:55;;;;;;;;;;;26.20;75.90;;;;;;5233732;28;20971;-73
2021/08/15 03:36:27;;;;;;;;;;;26.20;75.90;;;;;;5232587;28;20310;-73
2021/08/15 03:39:00;;;;;;;;;;;26.20;75.90;;;;;;5226564;28;19925;-73
2021/08/15 03:41:32;;;;;;;;;;;26.20;75.90;;;;;;5230732;28;19936;-73
2021/08/15 03:44:04;;;;;;;;;;;26.20;75.90;;;;;;5221674;28;19936;-73
2021/08/15 03:46:36;;;;;;;;;;;26.20;75.90;;;;;;5232644;28;20377;-73
2021/08/15 03:49:09;;;;;;;;;;;26.20;76.00;;;;;;5228855;28;19931;-73
2021/08/15 03:51:41;;;;;;;;;;;26.20;75.90;;;;;;5237506;28;19924;-71
2021/08/15 03:54:17;;;;;;;;;;;26.20;75.90;;;;;;5247847;28;19925;-71
2021/08/15 03:56:49;;;;;;;;;;;26.20;75.80;;;;;;5243756;28;20341;-71
2021/08/15 03:59:22;;;;;;;;;;;26.20;75.80;;;;;;5214242;28;19932;-72
2021/08/15 04:01:54;;;;;;;;;;;26.20;75.80;;;;;;5244160;28;20381;-72
2021/08/15 04:04:26;;;;;;;;;;;26.20;75.80;;;;;;5246061;28;19925;-71
2021/08/15 04:06:58;;;;;;;;;;;26.20;75.80;;;;;;5247709;28;19930;-71
2021/08/15 04:09:30;;;;;;;;;;;26.20;75.80;;;;;;5245214;28;20412;-71
2021/08/15 04:12:03;;;;;;;;;;;26.20;75.80;;;;;;5229625;28;19931;-71
2021/08/15 04:14:35;;;;;;;;;;;26.20;75.80;;;;;;5247624;28;19924;-71
2021/08/15 04:17:07;;;;;;;;;;;26.20;75.70;;;;;;5245593;28;19924;-71
2021/08/15 04:19:39;;;;;;;;;;;26.20;75.60;;;;;;5236373;28;19936;-73
2021/08/15 04:22:12;;;;;;;;;;;26.20;75.70;;;;;;5227575;28;19932;-73
2021/08/15 04:24:44;;;;;;;;;;;26.20;75.60;;;;;;5219750;28;19939;-72
2021/08/15 04:27:16;;;;;;;;;;;26.20;75.60;;;;;;5225108;28;20372;-72
2021/08/15 04:29:48;;;;;;;;;;;26.20;75.70;;;;;;5227686;28;19929;-73
2021/08/15 04:32:20;;;;;;;;;;;26.20;75.80;;;;;;5216851;28;19925;-74
2021/08/15 04:34:53;;;;;;;;;;;26.20;75.80;;;;;;5215322;28;19924;-73
2021/08/15 04:37:25;;;;;;;;;;;26.20;75.80;;;;;;5210147;28;19932;-73
2021/08/15 04:39:57;;;;;;;;;;;26.10;75.70;;;;;;5219122;28;19929;-73
2021/08/15 04:42:30;;;;;;;;;;;26.20;75.80;;;;;;5222766;28;19929;-73
2021/08/15 04:45:02;;;;;;;;;;;26.10;75.80;;;;;;5204736;28;19925;-73
2021/08/15 04:47:34;;;;;;;;;;;26.10;75.90;;;;;;5217494;28;19933;-74
2021/08/15 04:50:07;;;;;;;;;;;26.20;76.00;;;;;;5231786;28;19928;-74
2021/08/15 04:52:39;;;;;;;;;;;26.10;76.00;;;;;;5231089;28;19925;-72
2021/08/15 04:55:12;;;;;;;;;;;26.10;76.00;;;;;;5230775;28;19931;-73
2021/08/15 04:57:44;;;;;;;;;;;26.10;75.90;;;;;;5232630;28;19932;-73
2021/08/15 05:00:16;;;;;;;;;;;26.10;76.00;;;;;;5233320;28;19936;-73
2021/08/15 05:02:48;;;;;;;;;;;26.10;75.90;;;;;;5220394;28;20416;-73
2021/08/15 05:05:21;;;;;;;;;;;26.10;75.90;;;;;;5225842;28;20554;-72
2021/08/15 05:07:53;;;;;;;;;;;26.10;75.90;;;;;;5216176;28;19929;-73
2021/08/15 05:10:26;;;;;;;;;;;26.10;76.00;;;;;;5222108;28;19940;-73
2021/08/15 05:12:58;;;;;;;;;;;26.10;76.00;;;;;;5223496;28;19943;-73
2021/08/15 05:15:30;;;;;;;;;;;26.10;76.00;;;;;;5223302;28;20755;-73
2021/08/15 05:18:03;;;;;;;;;;;26.10;76.00;;;;;;5226159;28;19932;-73
2021/08/15 05:20:36;;;;;;;;;;;26.10;76.10;;;;;;5227079;28;19940;-73
2021/08/15 05:23:08;;;;;;;;;;;26.10;76.20;;;;;;5221674;28;19929;-73
2021/08/15 05:25:40;;;;;;;;;;;26.10;76.10;;;;;;5193055;28;19929;-73
2021/08/15 05:28:13;;;;;;;;;;;26.10;76.20;;;;;;5227156;28;19924;-73
2021/08/15 05:30:45;;;;;;;;;;;26.10;76.20;;;;;;5212748;28;19928;-73
2021/08/15 05:33:17;;;;;;;;;;;26.10;76.20;;;;;;5209602;28;19929;-73
2021/08/15 05:35:49;;;;;;;;;;;26.10;76.30;;;;;;5225306;28;20366;-73
2021/08/15 05:38:22;;;;;;;;;;;26.10;76.90;;;;;;5230227;28;19925;-73
2021/08/15 05:40:54;;;;;;;;;;;26.10;76.40;;;;;;5213181;28;21707;-73
2021/08/15 05:43:26;;;;;;;;;;;26.10;76.30;;;;;;5227797;28;19932;-73
2021/08/15 05:45:58;;;;;;;;;;;26.10;76.50;;;;;;5213895;28;19925;-73
2021/08/15 05:48:30;;;;;;;;;;;26.10;76.50;;;;;;5210944;28;19925;-73
2021/08/15 05:51:05;;;;;;;;;;;26.10;76.40;;;;;;5197052;28;20600;-73
2021/08/15 05:53:37;;;;;;;;;;;26.10;76.60;;;;;;5209540;28;20310;-73
2021/08/15 05:56:10;;;;;;;;;;;26.10;76.60;;;;;;5225421;28;19935;-73
2021/08/15 05:58:42;;;;;;;;;;;26.10;76.60;;;;;;5228779;28;19932;-73
2021/08/15 06:01:14;;;;;;;;;;;26.10;76.60;;;;;;5211684;28;19925;-73
2021/08/15 06:03:46;;;;;;;;;;;26.10;76.70;;;;;;5233700;28;19948;-73
2021/08/15 06:06:18;;;;;;;;;;;26.10;76.80;;;;;;5215512;28;19935;-73
2021/08/15 06:08:50;;;;;;;;;;;26.10;76.70;;;;;;5234074;28;19924;-72
2021/08/15 06:11:23;;;;;;;;;;;26.10;76.80;;;;;;5220772;28;19933;-72
2021/08/15 06:13:57;;;;;;;;;;;26.10;76.80;;;;;;5238306;28;19932;-73
2021/08/15 06:16:29;;;;;;;;;;;26.10;76.80;;;;;;5233413;28;20151;-72
2021/08/15 06:19:02;;;;;;;;;;;26.10;76.90;;;;;;5229785;28;19925;-73
2021/08/15 06:21:34;;;;;;;;;;;26.10;76.80;;;;;;5231773;28;19940;-73
2021/08/15 06:24:06;;;;;;;;;;;26.10;77.00;;;;;;5228932;28;20329;-74
2021/08/15 06:26:38;;;;;;;;;;;26.10;76.90;;;;;;5215811;28;19932;-73
2021/08/15 06:29:10;;;;;;;;;;;26.10;77.00;;;;;;5233887;28;19924;-74
2021/08/15 06:31:42;;;;;;;;;;;26.10;77.00;;;;;;5198805;28;19925;-73
2021/08/15 06:34:15;;;;;;;;;;;26.10;77.10;;;;;;5214832;28;19931;-74
2021/08/15 06:36:47;;;;;;;;;;;26.10;77.10;;;;;;5216240;28;19947;-74
2021/08/15 06:39:19;;;;;;;;;;;26.10;77.10;;;;;;5232414;28;20320;-73
2021/08/15 06:41:51;;;;;;;;;;;26.10;77.10;;;;;;5231786;28;20393;-73
2021/08/15 06:44:24;;;;;;;;;;;26.10;77.10;;;;;;5215540;28;20303;-74
2021/08/15 06:46:56;;;;;;;;;;;26.10;77.20;;;;;;5233396;28;22654;-73
2021/08/15 06:49:28;;;;;;;;;;;26.10;77.20;;;;;;5233879;28;19924;-74
2021/08/15 06:52:00;;;;;;;;;;;26.10;77.20;;;;;;5232968;28;19924;-73
2021/08/15 06:54:33;;;;;;;;;;;26.10;77.20;;;;;;5234677;28;19928;-73
2021/08/15 06:57:06;;;;;;;;;;;26.10;77.20;;;;;;5234006;28;20305;-73
2021/08/15 06:59:38;;;;;;;;;;;26.10;77.20;;;;;;5233290;28;19929;-73
2021/08/15 07:02:10;;;;;;;;;;;26.10;77.20;;;;;;5236343;28;19925;-73
2021/08/15 07:04:42;;;;;;;;;;;26.10;77.20;;;;;;5227855;28;19931;-73
2021/08/15 07:07:14;;;;;;;;;;;26.10;77.90;;;;;;5230932;28;19936;-73
2021/08/15 07:09:47;;;;;;;;;;;26.10;77.30;;;;;;5226731;28;19933;-73
2021/08/15 07:12:19;;;;;;;;;;;26.10;77.30;;;;;;5216270;28;20278;-73
2021/08/15 07:14:51;;;;;;;;;;;26.10;77.20;;;;;;5226587;28;19928;-73
2021/08/15 07:17:23;;;;;;;;;;;26.10;77.20;;;;;;5210366;28;19933;-73
2021/08/15 07:19:55;;;;;;;;;;;26.10;77.30;;;;;;5227876;28;19924;-73
2021/08/15 07:22:28;;;;;;;;;;;26.10;77.20;;;;;;5229026;28;19931;-73
2021/08/15 07:25:01;;;;;;;;;;;26.10;77.20;;;;;;5224180;28;20689;-73
2021/08/15 07:27:35;;;;;;;;;;;26.10;77.20;;;;;;5222686;28;20490;-73
2021/08/15 07:30:08;;;;;;;;;;;26.10;77.20;;;;;;5228699;28;19933;-73
2021/08/15 07:32:55;;;;;;;;;;;26.10;77.20;;;;;;5229022;28;19932;-74
2021/08/15 07:35:28;;;;;;;;;;;26.10;77.20;;;;;;5234338;28;19928;-74
2021/08/15 07:38:01;;;;;;;;;;;26.10;77.10;;;;;;5220344;28;19952;-74
2021/08/15 07:40:33;;;;;;;;;;;26.10;77.10;;;;;;5230991;28;19933;-73
2021/08/15 07:43:06;;;;;;;;;;;26.10;77.20;;;;;;5226534;28;19925;-73
2021/08/15 07:45:38;;;;;;;;;;;26.10;77.10;;;;;;5224860;28;20314;-73
2021/08/15 07:48:10;;;;;;;;;;;26.10;77.70;;;;;;5225636;28;20136;-73
2021/08/15 07:50:42;;;;;;;;;;;26.10;77.80;;;;;;5227726;28;19924;-73
2021/08/15 07:53:17;;;;;;;;;;;26.10;77.70;;;;;;5231755;28;19929;-73
2021/08/15 07:55:52;;;;;;;;;;;26.10;78.20;;;;;;5224020;28;19933;-73
2021/08/15 07:58:24;;;;;;;;;;;26.10;78.30;;;;;;5224520;28;19932;-73
2021/08/15 08:00:58;;;;;;;;;;;26.10;78.20;;;;;;5220606;28;24413;-73
2021/08/15 08:03:31;;;;;;;;;;;26.10;78.00;;;;;;5207823;28;19929;-74
2021/08/15 08:06:03;;;;;;;;;;;26.10;78.50;;;;;;5215280;28;20378;-74
2021/08/15 08:08:35;;;;;;;;;;;26.20;78.60;;;;;;5199457;28;19929;-74
2021/08/15 08:11:08;;;;;;;;;;;26.10;78.40;;;;;;5203113;28;19932;-74
2021/08/15 08:13:40;;;;;;;;;;;26.20;78.50;;;;;;5220463;28;20360;-74
2021/08/15 08:16:12;;;;;;;;;;;26.20;78.30;;;;;;5188121;28;19929;-73
2021/08/15 08:18:44;;;;;;;;;;;26.20;78.10;;;;;;5218774;28;20514;-75
2021/08/15 08:21:17;;;;;;;;;;;26.20;78.10;;;;;;5224177;28;19928;-73
2021/08/15 08:23:50;;;;;;;;;;;26.20;78.10;;;;;;5220995;28;19932;-74
2021/08/15 08:26:22;;;;;;;;;;;26.20;78.00;;;;;;5205830;28;19929;-74
2021/08/15 08:28:54;;;;;;;;;;;26.20;77.90;;;;;;5221867;28;19932;-74
2021/08/15 08:31:27;;;;;;;;;;;26.20;78.10;;;;;;5216105;28;19933;-74
2021/08/15 08:33:59;;;;;;;;;;;26.20;78.30;;;;;;5225407;28;19929;-73
2021/08/15 08:36:31;;;;;;;;;;;26.20;78.60;;;;;;5187744;28;20946;-74
2021/08/15 08:39:04;;;;;;;;;;;26.20;78.70;;;;;;5216394;28;19933;-73
2021/08/15 08:41:37;;;;;;;;;;;26.20;79.30;;;;;;5221772;28;19925;-74
2021/08/15 08:44:09;;;;;;;;;;;26.20;78.90;;;;;;5212978;28;19925;-74
2021/08/15 08:46:42;;;;;;;;;;;26.20;79.00;;;;;;5179132;28;19939;-74
2021/08/15 08:49:15;;;;;;;;;;;26.20;78.60;;;;;;5208999;28;19929;-74
2021/08/15 08:51:47;;;;;;;;;;;26.20;79.10;;;;;;5200720;28;19939;-74
2021/08/15 08:54:30;;;;;;;;;;;26.20;79.00;;;;;;5195070;28;19932;-75
2021/08/15 08:57:02;;;;;;;;;;;26.30;79.00;;;;;;5198600;28;19928;-73
2021/08/15 08:59:37;;;;;;;;;;;26.30;79.00;;;;;;5197747;28;19933;-75
2021/08/15 09:02:11;;;;;;;;;;;26.20;79.20;;;;;;5205012;28;19940;-76
2021/08/15 09:04:43;;;;;;;;;;;26.30;79.10;;;;;;5212520;28;19928;-76
2021/08/15 09:07:17;;;;;;;;;;;26.30;78.90;;;;;;5201868;28;20404;-76
2021/08/15 09:09:51;;;;;;;;;;;26.30;79.10;;;;;;5210268;28;20436;-75
2021/08/15 09:12:43;;;;;;;;;;;26.40;79.20;;;;;;5192818;28;20423;-74
2021/08/15 09:15:16;;;;;;;;;;;26.40;79.00;;;;;;5219857;28;19939;-76
2021/08/15 09:17:49;;;;;;;;;;;26.40;79.00;;;;;;5221855;28;19940;-75
2021/08/15 09:20:41;;;;;;;;;;;26.40;78.90;;;;;;5225085;28;20424;-77
2021/08/15 09:23:23;;;;;;;;;;;26.40;78.90;;;;;;5224226;28;19932;-74
2021/08/15 09:26:08;;;;;;;;;;;26.40;78.80;;;;;;5201266;28;19932;-75
2021/08/15 09:28:41;;;;;;;;;;;26.40;78.90;;;;;;5214338;28;19929;-74
2021/08/15 09:31:34;;;;;;;;;;;26.40;78.60;;;;;;5196155;28;19940;-75
2021/08/15 09:34:22;;;;;;;;;;;26.50;78.70;;;;;;5215547;28;20499;-76
2021/08/15 09:36:55;;;;;;;;;;;26.50;78.80;;;;;;5206463;28;19928;-76
2021/08/15 09:39:34;;;;;;;;;;;26.50;78.90;;;;;;5201143;28;19933;-76
2021/08/15 09:42:06;;;;;;;;;;;26.50;78.90;;;;;;5211044;28;20344;-77
2021/08/15 09:44:38;;;;;;;;;;;26.50;79.00;;;;;;5208842;28;19928;-75
2021/08/15 09:47:12;;;;;;;;;;;26.50;79.00;;;;;;5188835;28;20428;-75
2021/08/15 09:49:45;;;;;;;;;;;26.50;79.50;;;;;;5213809;28;19947;-77
2021/08/15 09:52:18;;;;;;;;;;;26.60;79.40;;;;;;5202188;28;19932;-76
2021/08/15 09:54:54;;;;;;;;;;;26.60;79.80;;;;;;5195810;28;19925;-76
2021/08/15 09:57:30;;;;;;;;;;;26.60;80.30;;;;;;5200324;28;19932;-77
2021/08/15 10:00:03;;;;;;;;;;;26.60;80.50;;;;;;5172301;28;19928;-78
2021/08/15 10:02:43;;;;;;;;;;;26.60;80.50;;;;;;5186679;28;19929;-76
2021/08/15 10:05:15;;;;;;;;;;;26.70;80.10;;;;;;5227110;28;20825;-76
2021/08/15 10:07:49;;;;;;;;;;;26.70;80.20;;;;;;5220202;28;19933;-75
2021/08/15 10:10:38;;;;;;;;;;;26.70;80.30;;;;;;5219223;28;19925;-77
2021/08/15 10:13:11;;;;;;;;;;;26.70;80.50;;;;;;5192796;28;19935;-77
2021/08/15 10:15:51;;;;;;;;;;;26.70;80.50;;;;;;5193174;28;19953;-76
2021/08/15 10:18:26;;;;;;;;;;;26.70;80.40;;;;;;5207488;28;19940;-76
2021/08/15 10:21:00;;;;;;;;;;;26.70;80.30;;;;;;5202542;28;21256;-76
2021/08/15 10:23:36;;;;;;;;;;;26.70;80.40;;;;;;5203354;28;19932;-76
2021/08/15 10:26:27;;;;;;;;;;;26.70;80.20;;;;;;5205058;28;19924;-76
2021/08/15 10:28:59;;;;;;;;;;;26.80;80.30;;;;;;5209963;28;19928;-76
2021/08/15 10:31:50;;;;;;;;;;;26.80;80.00;;;;;;5197406;28;19929;-76
2021/08/15 10:34:22;;;;;;;;;;;26.80;79.90;;;;;;5207747;28;19944;-77
2021/08/15 10:37:14;;;;;;;;;;;26.80;79.50;;;;;;5206636;28;19928;-76
2021/08/15 10:39:46;;;;;;;;;;;26.80;79.40;;;;;;5206818;28;19932;-75
2021/08/15 10:42:37;;;;;;;;;;;26.80;79.40;;;;;;5178678;28;19940;-76
2021/08/15 10:45:12;;;;;;;;;;;26.80;79.30;;;;;;5209089;28;19955;-77
2021/08/15 10:48:09;;;;;;;;;;;26.80;79.20;;;;;;5210841;28;19932;-76
2021/08/15 10:50:42;;;;;;;;;;;26.80;79.10;;;;;;5210861;28;19940;-77
2021/08/15 10:56:09;;;;;;;;;;;26.80;79.00;;;;;;5214353;28;19937;-76
2021/08/15 10:58:47;;;;;;;;;;;26.80;78.80;;;;;;5215135;28;19935;-76
2021/08/15 11:01:39;;;;;;;;;;;26.80;78.70;;;;;;5215607;28;19931;-77
2021/08/15 11:04:29;;;;;;;;;;;26.80;78.70;;;;;;5214918;28;19940;-76
2021/08/15 11:07:01;;;;;;;;;;;26.80;78.60;;;;;;5211333;28;19931;-76
2021/08/15 11:09:52;;;;;;;;;;;26.80;78.50;;;;;;5201876;28;19932;-76
2021/08/15 11:12:24;;;;;;;;;;;26.80;78.40;;;;;;5221869;28;19933;-76
2021/08/15 11:14:58;;;;;;;;;;;26.90;78.40;;;;;;5213104;28;20431;-75
2021/08/15 11:17:31;;;;;;;;;;;26.90;78.30;;;;;;5208621;28;19931;-76
2021/08/15 11:20:22;;;;;;;;;;;26.90;78.40;;;;;;5213998;28;19924;-75
2021/08/15 11:23:06;;;;;;;;;;;26.80;78.20;;;;;;5215100;28;20413;-75
2021/08/15 11:25:39;;;;;;;;;;;26.90;78.20;;;;;;5179733;28;19932;-75
2021/08/15 11:28:12;;;;;;;;;;;26.90;78.80;;;;;;5209470;28;19940;-75
2021/08/15 11:30:52;;;;;;;;;;;26.90;78.10;;;;;;5212653;28;19933;-75
2021/08/15 11:33:24;;;;;;;;;;;26.90;78.00;;;;;;5195829;28;19935;-76
2021/08/15 11:35:58;;;;;;;;;;;26.90;77.70;;;;;;5219072;28;19932;-75
2021/08/15 11:38:30;;;;;;;;;;;26.90;77.50;;;;;;5217167;28;20386;-75
2021/08/15 11:41:03;;;;;;;;;;;26.90;77.50;;;;;;5215791;28;19935;-75
2021/08/15 11:43:35;;;;;;;;;;;27.00;78.20;;;;;;5196151;28;19940;-78
2021/08/15 11:46:09;;;;;;;;;;;27.00;77.40;;;;;;5204205;28;21229;-76
2021/08/15 11:48:41;;;;;;;;;;;27.00;78.10;;;;;;5185576;28;19928;-76
2021/08/15 11:51:13;;;;;;;;;;;27.00;78.20;;;;;;5181913;28;19928;-78
2021/08/15 11:53:47;;;;;;;;;;;27.10;78.30;;;;;;5178557;28;20425;-76
2021/08/15 11:56:21;;;;;;;;;;;27.20;77.90;;;;;;5184089;28;20300;-76
2021/08/15 11:58:55;;;;;;;;;;;27.20;77.60;;;;;;5198602;28;20385;-77
2021/08/15 12:01:27;;;;;;;;;;;27.30;77.60;;;;;;5196896;28;19928;-77
2021/08/15 12:04:04;;;;;;;;;;;27.40;77.40;;;;;;5203210;28;19929;-75
2021/08/15 12:06:39;;;;;;;;;;;27.50;77.10;;;;;;5207682;28;19929;-75
2021/08/15 12:09:19;;;;;;;;;;;27.60;77.00;;;;;;5208016;28;19936;-75
2021/08/15 12:11:56;;;;;;;;;;;27.60;76.90;;;;;;5208366;28;19929;-76
2021/08/15 12:14:36;;;;;;;;;;;27.70;76.70;;;;;;5190908;28;19932;-76
2021/08/15 12:17:09;;;;;;;;;;;27.80;76.60;;;;;;5201869;28;19929;-77
2021/08/15 12:19:45;;;;;;;;;;;27.80;76.30;;;;;;5225512;28;19928;-75
2021/08/15 12:22:18;;;;;;;;;;;27.90;76.20;;;;;;5210132;28;19955;-78
2021/08/15 12:24:56;;;;;;;;;;;28.00;76.30;;;;;;5203084;28;19928;-75
2021/08/15 12:27:28;;;;;;;;;;;28.00;76.10;;;;;;5200845;28;19939;-75
2021/08/15 12:30:00;;;;;;;;;;;28.10;76.20;;;;;;5207612;28;19928;-74
2021/08/15 12:32:33;;;;;;;;;;;28.10;75.90;;;;;;5195463;28;25816;-76
2021/08/15 12:35:05;;;;;;;;;;;28.20;75.90;;;;;;5220643;28;19935;-76
2021/08/15 12:37:39;;;;;;;;;;;28.20;75.80;;;;;;5209153;28;19929;-73
2021/08/15 12:40:13;;;;;;;;;;;28.20;75.80;;;;;;5166299;28;19932;-73
2021/08/15 12:42:56;;;;;;;;;;;28.30;75.60;;;;;;5186470;28;19933;-73
2021/08/15 12:45:37;;;;;;;;;;;28.30;75.80;;;;;;5179283;28;19940;-73
2021/08/15 12:48:10;;;;;;;;;;;28.40;75.20;;;;;;5187500;28;19933;-73
2021/08/15 12:50:45;;;;;;;;;;;28.50;74.90;;;;;;5166817;28;19928;-75
2021/08/15 12:53:21;;;;;;;;;;;28.50;74.40;;;;;;5157773;28;19929;-75
2021/08/15 12:55:54;;;;;;;;;;;28.60;73.90;;;;;;5182453;28;19932;-76
2021/08/15 12:58:26;;;;;;;;;;;28.60;73.50;;;;;;5184198;28;20517;-75
2021/08/15 13:01:02;;;;;;;;;;;28.70;73.20;;;;;;5186013;28;20388;-75
2021/08/15 13:03:35;;;;;;;;;;;28.70;73.90;;;;;;5176899;28;19928;-75
2021/08/15 13:06:09;;;;;;;;;;;28.80;72.90;;;;;;5165328;28;21333;-75
2021/08/15 13:08:42;;;;;;;;;;;28.80;72.30;;;;;;5168545;28;21180;-74
2021/08/15 13:11:14;;;;;;;;;;;28.80;71.90;;;;;;5185617;28;19932;-74
2021/08/15 13:13:46;;;;;;;;;;;28.80;71.80;;;;;;5184769;28;20131;-73
2021/08/15 13:16:18;;;;;;;;;;;28.90;71.80;;;;;;5169838;28;20335;-74
2021/08/15 13:18:51;;;;;;;;;;;28.90;72.00;;;;;;5153707;28;19935;-74
2021/08/15 13:21:24;;;;;;;;;;;28.90;71.30;;;;;;5189190;28;19940;-74
2021/08/15 13:23:56;;;;;;;;;;;29.00;71.40;;;;;;5192932;28;19940;-75
2021/08/15 13:26:28;;;;;;;;;;;29.00;71.10;;;;;;5166836;28;20366;-77
2021/08/15 13:29:00;;;;;;;;;;;29.00;69.80;;;;;;5177673;28;20542;-74
2021/08/15 13:31:33;;;;;;;;;;;29.10;70.10;;;;;;5153595;28;19929;-74
2021/08/15 13:34:05;;;;;;;;;;;29.10;67.70;;;;;;5166458;28;20402;-73
2021/08/15 13:36:38;;;;;;;;;;;29.20;68.90;;;;;;5162126;28;19929;-72
2021/08/15 13:39:10;;;;;;;;;;;29.30;69.20;;;;;;5170200;28;19928;-72
2021/08/15 13:41:42;;;;;;;;;;;29.30;68.10;;;;;;5186782;28;20374;-71
2021/08/15 13:44:14;;;;;;;;;;;29.30;67.90;;;;;;5184672;28;19936;-72
2021/08/15 13:46:46;;;;;;;;;;;29.30;67.30;;;;;;5188849;28;19935;-74
2021/08/15 13:49:19;;;;;;;;;;;29.30;68.00;;;;;;5187266;28;20603;-72
2021/08/15 13:51:51;;;;;;;;;;;29.30;68.20;;;;;;5168971;28;20599;-72
2021/08/15 13:54:23;;;;;;;;;;;29.40;68.50;;;;;;5166100;28;20298;-74
2021/08/15 13:56:55;;;;;;;;;;;29.40;68.70;;;;;;5183890;28;19935;-74
2021/08/15 13:59:27;;;;;;;;;;;29.40;68.50;;;;;;5170366;28;20291;-73
2021/08/15 14:02:00;;;;;;;;;;;29.40;68.60;;;;;;5198169;28;20298;-73
2021/08/15 14:04:33;;;;;;;;;;;29.40;68.40;;;;;;5191159;28;20517;-74
2021/08/15 14:07:05;;;;;;;;;;;29.40;68.60;;;;;;5197945;28;20687;-74
2021/08/15 14:09:37;;;;;;;;;;;29.50;68.80;;;;;;5184285;28;20579;-74
2021/08/15 14:12:10;;;;;;;;;;;29.50;69.30;;;;;;5175170;28;19932;-74
2021/08/15 14:14:43;;;;;;;;;;;29.50;69.40;;;;;;5178969;28;19933;-73
2021/08/15 14:17:17;;;;;;;;;;;29.50;69.20;;;;;;5179010;28;20289;-73
2021/08/15 14:19:50;;;;;;;;;;;29.50;69.50;;;;;;5194840;28;19936;-74
2021/08/15 14:22:22;;;;;;;;;;;29.50;69.60;;;;;;5177247;28;20621;-73
2021/08/15 14:24:55;;;;;;;;;;;29.50;69.70;;;;;;5181220;28;19929;-74
2021/08/15 14:27:27;;;;;;;;;;;29.50;69.80;;;;;;5180671;28;20388;-74
2021/08/15 14:29:59;;;;;;;;;;;29.50;69.30;;;;;;5193859;28;19940;-73
2021/08/15 14:32:31;;;;;;;;;;;29.50;69.30;;;;;;5134951;28;19939;-72
2021/08/15 14:35:04;;;;;;;;;;;29.40;69.20;;;;;;5182930;28;19933;-75
2021/08/15 14:37:36;;;;;;;;;;;29.40;69.50;;;;;;5179779;28;19932;-73
2021/08/15 14:40:10;;;;;;;;;;;29.40;69.60;;;;;;5180862;28;19928;-72
2021/08/15 14:42:46;;;;;;;;;;;29.40;69.60;;;;;;5150648;28;19932;-74
2021/08/15 14:45:19;;;;;;;;;;;29.40;70.10;;;;;;5177343;28;20421;-76
2021/08/15 14:47:51;;;;;;;;;;;29.30;70.00;;;;;;5152205;28;19933;-76
2021/08/15 14:50:24;;;;;;;;;;;29.30;70.30;;;;;;5178882;28;20296;-76
2021/08/15 14:52:56;;;;;;;;;;;29.30;70.60;;;;;;5163847;28;19929;-75
2021/08/15 14:55:28;;;;;;;;;;;29.30;70.80;;;;;;5169498;28;20209;-75